createdAt,value
2019-03-15T00:02:54.283Z,91.02
2019-03-15T00:06:02.991Z,90.35
2019-03-15T00:09:11.760Z,90.11
2019-03-15T00:12:21.547Z,90.46
2019-03-15T00:15:30.328Z,89.92
2019-03-15T00:18:38.913Z,89.43
2019-03-15T00:21:57.774Z,88.61
2019-03-15T00:25:07.319Z,87.60
2019-03-15T00:28:16.009Z,87.65
2019-03-15T00:31:24.833Z,87.58
2019-03-15T00:34:34.008Z,87.20
2019-03-15T00:37:53.915Z,86.35
2019-03-15T00:41:02.609Z,86.08
2019-03-15T00:44:11.193Z,85.51
2019-03-15T00:47:19.959Z,85.96
2019-03-15T00:50:28.556Z,85.88
2019-03-15T00:53:37.140Z,85.31
2019-03-15T00:56:45.847Z,86.39
2019-03-15T00:59:54.424Z,85.88
2019-03-15T01:03:13.208Z,86.70
2019-03-15T01:06:21.756Z,87.61
2019-03-15T01:09:30.556Z,87.96
2019-03-15T01:12:39.154Z,88.39
2019-03-15T01:15:47.828Z,88.73
2019-03-15T01:18:56.395Z,89.42
2019-03-15T01:22:05.042Z,90.19
2019-03-15T01:25:13.708Z,90.25
2019-03-15T01:28:32.561Z,89.53
2019-03-15T01:31:41.083Z,89.80
2019-03-15T01:34:49.562Z,88.87
2019-03-15T01:37:58.229Z,88.85
2019-03-15T01:41:06.830Z,88.31
2019-03-15T01:44:15.435Z,87.92
2019-03-15T01:47:34.339Z,87.43
2019-03-15T01:50:42.815Z,87.93
2019-03-15T01:53:51.421Z,87.98
2019-03-15T01:57:00.179Z,87.71
2019-03-15T02:00:10.377Z,87.92
2019-03-15T02:03:18.992Z,87.26
2019-03-15T02:06:37.772Z,87.24
2019-03-15T02:09:46.407Z,86.61
2019-03-15T02:12:54.971Z,87.18
2019-03-15T02:16:03.574Z,86.73
2019-03-15T02:19:12.280Z,86.94
2019-03-15T02:22:20.874Z,87.58
2019-03-15T02:25:29.455Z,88.04
2019-03-15T02:28:48.198Z,86.95
2019-03-15T02:31:56.802Z,88.64
2019-03-15T02:35:05.677Z,88.69
2019-03-15T02:38:14.182Z,88.55
2019-03-15T02:41:22.761Z,88.91
2019-03-15T02:44:31.361Z,89.00
2019-03-15T02:47:39.976Z,88.77
2019-03-15T02:50:48.622Z,88.57
2019-03-15T02:54:07.552Z,87.86
2019-03-15T02:57:16.206Z,88.76
2019-03-15T03:00:24.684Z,89.43
2019-03-15T03:03:33.290Z,89.53
2019-03-15T03:06:43.464Z,89.65
2019-03-15T03:09:52.090Z,89.20
2019-03-15T03:13:11.067Z,88.93
2019-03-15T03:16:19.809Z,88.93
2019-03-15T03:19:28.628Z,88.11
2019-03-15T03:22:37.244Z,88.50
2019-03-15T03:25:45.889Z,89.04
2019-03-15T03:28:54.416Z,88.80
2019-03-15T03:32:03.054Z,88.44
2019-03-15T03:35:12.193Z,88.15
2019-03-15T03:38:21.088Z,88.01
2019-03-15T03:41:30.134Z,88.20
2019-03-15T03:44:38.850Z,88.27
2019-03-15T03:47:47.429Z,87.73
2019-03-15T03:50:56.035Z,87.95
2019-03-15T03:54:05.044Z,87.06
2019-03-15T03:57:13.641Z,86.80
2019-03-15T04:00:22.248Z,87.48
2019-03-15T04:03:31.061Z,87.15
2019-03-15T04:06:39.686Z,87.30
2019-03-15T04:09:48.323Z,86.99
2019-03-15T04:13:07.169Z,87.03
2019-03-15T04:16:15.846Z,87.05
2019-03-15T04:19:24.769Z,86.73
2019-03-15T04:22:33.548Z,86.76
2019-03-15T04:25:42.221Z,87.39
2019-03-15T04:28:50.725Z,87.09
2019-03-15T04:31:59.307Z,87.29
2019-03-15T04:35:08.131Z,86.84
2019-03-15T04:38:16.772Z,86.81
2019-03-15T04:41:25.380Z,86.72
2019-03-15T04:44:34.056Z,86.57
2019-03-15T04:47:43.713Z,86.69
2019-03-15T04:50:52.476Z,87.54
2019-03-15T04:54:01.063Z,87.60
2019-03-15T04:57:09.635Z,87.89
2019-03-15T05:00:18.317Z,88.21
2019-03-15T05:03:26.884Z,87.92
2019-03-15T05:06:45.703Z,87.81
2019-03-15T05:09:54.267Z,87.35
2019-03-15T05:13:02.970Z,87.31
2019-03-15T05:16:11.660Z,87.32
2019-03-15T05:19:20.165Z,87.02
2019-03-15T05:22:28.790Z,86.74
2019-03-15T05:25:37.432Z,86.78
2019-03-15T05:28:56.173Z,87.28
2019-03-15T05:32:04.764Z,87.18
2019-03-15T05:35:13.459Z,86.76
2019-03-15T05:38:22.050Z,86.72
2019-03-15T05:41:30.639Z,86.61
2019-03-15T05:44:39.262Z,86.78
2019-03-15T05:47:47.950Z,86.67
2019-03-15T05:51:06.745Z,86.59
2019-03-15T05:54:15.330Z,86.77
2019-03-15T05:57:24.450Z,86.94
2019-03-15T06:00:32.920Z,86.16
2019-03-15T06:03:48.353Z,86.07
2019-03-15T06:06:50.318Z,86.31
2019-03-15T06:09:58.894Z,86.66
2019-03-15T06:13:07.438Z,86.59
2019-03-15T06:16:26.231Z,86.00
2019-03-15T06:19:38.075Z,86.05
2019-03-15T06:22:46.595Z,85.69
2019-03-15T06:25:55.133Z,85.92
2019-03-15T06:29:03.651Z,85.76
2019-03-15T06:32:22.306Z,85.16
2019-03-15T06:35:30.973Z,85.24
2019-03-15T06:38:39.459Z,85.34
2019-03-15T06:41:48.174Z,85.93
2019-03-15T06:44:58.215Z,85.57
2019-03-15T06:48:06.985Z,85.66
2019-03-15T06:51:25.632Z,85.60
2019-03-15T06:54:34.122Z,85.62
2019-03-15T06:57:42.767Z,85.35
2019-03-15T07:00:54.619Z,84.96
2019-03-15T07:04:01.498Z,84.44
2019-03-15T07:07:20.314Z,84.13
2019-03-15T07:10:28.824Z,83.43
2019-03-15T07:13:37.401Z,83.71
2019-03-15T07:16:46.625Z,83.56
2019-03-15T07:19:54.566Z,83.07
2019-03-15T07:23:03.264Z,83.03
2019-03-15T07:26:22.052Z,83.46
2019-03-15T07:29:30.644Z,82.65
2019-03-15T07:32:39.108Z,82.55
2019-03-15T07:35:47.769Z,82.29
2019-03-15T07:38:56.262Z,81.93
2019-03-15T07:42:14.910Z,81.24
2019-03-15T07:45:23.558Z,81.32
2019-03-15T07:48:32.140Z,81.13
2019-03-15T07:51:40.733Z,81.41
2019-03-15T07:54:49.215Z,81.53
2019-03-15T07:57:57.866Z,81.31
2019-03-15T08:01:16.691Z,81.59
2019-03-15T08:04:25.332Z,81.26
2019-03-15T08:07:42.073Z,80.60
2019-03-15T08:10:46.108Z,80.67
2019-03-15T08:13:54.578Z,80.12
2019-03-15T08:17:03.091Z,80.80
2019-03-15T08:20:11.804Z,81.13
2019-03-15T08:23:20.441Z,81.02
2019-03-15T08:26:39.354Z,79.53
2019-03-15T08:29:47.965Z,79.78
2019-03-15T08:33:09.235Z,79.36
2019-03-15T08:36:05.173Z,79.51
2019-03-15T08:39:13.757Z,79.24
2019-03-15T08:42:22.394Z,78.79
2019-03-15T08:45:31.091Z,78.32
2019-03-15T08:48:39.666Z,78.25
2019-03-15T08:52:03.854Z,77.88
2019-03-15T08:55:09.661Z,77.41
2019-03-15T08:58:28.359Z,76.67
2019-03-15T09:01:36.950Z,76.53
2019-03-15T09:04:45.532Z,76.27
2019-03-15T09:07:52.662Z,75.97
2019-03-15T09:11:01.244Z,75.94
2019-03-15T09:14:09.842Z,76.30
2019-03-15T09:17:20.023Z,76.71
2019-03-15T09:20:30.358Z,77.08
2019-03-15T09:23:49.305Z,76.38
2019-03-15T09:26:57.902Z,75.83
2019-03-15T09:30:07.220Z,76.43
2019-03-15T09:33:15.704Z,76.35
2019-03-15T09:36:24.314Z,75.21
2019-03-15T09:39:32.881Z,75.23
2019-03-15T09:42:41.478Z,75.10
2019-03-15T09:45:50.050Z,74.51
2019-03-15T09:48:59.850Z,75.08
2019-03-15T09:52:08.531Z,75.01
2019-03-15T09:55:17.829Z,74.72
2019-03-15T09:58:36.671Z,74.70
2019-03-15T10:01:46.415Z,72.65
2019-03-15T10:04:55.164Z,72.55
2019-03-15T10:08:03.842Z,72.74
2019-03-15T10:11:12.498Z,74.08
2019-03-15T10:14:31.218Z,74.54
2019-03-15T10:17:39.845Z,74.68
2019-03-15T10:20:48.316Z,73.45
2019-03-15T10:23:57.539Z,72.88
2019-03-15T10:27:06.161Z,73.27
2019-03-15T10:30:15.257Z,74.40
2019-03-15T10:33:23.770Z,74.19
2019-03-15T10:36:34.603Z,73.87
2019-03-15T10:39:43.052Z,73.95
2019-03-15T10:42:51.624Z,74.06
2019-03-15T10:46:00.387Z,74.45
2019-03-15T10:49:08.190Z,74.38
2019-03-15T10:52:16.749Z,75.42
2019-03-15T10:55:25.343Z,76.90
2019-03-15T10:58:33.983Z,78.38
2019-03-15T11:01:42.466Z,78.36
2019-03-15T11:04:51.206Z,78.61
2019-03-15T11:08:00.029Z,78.17
2019-03-15T11:11:08.610Z,78.25
2019-03-15T11:14:27.520Z,78.47
2019-03-15T11:17:36.145Z,79.02
2019-03-15T11:20:44.711Z,79.65
2019-03-15T11:23:53.313Z,81.08
2019-03-15T11:27:01.804Z,81.05
2019-03-15T11:30:10.550Z,82.54
2019-03-15T11:33:29.330Z,84.63
2019-03-15T11:36:37.878Z,87.16
2019-03-15T11:39:46.555Z,87.67
2019-03-15T11:42:55.192Z,88.95
2019-03-15T11:46:03.672Z,89.10
2019-03-15T11:49:12.318Z,89.43
2019-03-15T11:52:20.891Z,90.55
2019-03-15T11:55:39.796Z,90.40
2019-03-15T11:58:54.623Z,90.98
2019-03-15T12:02:04.463Z,91.81
2019-03-15T12:05:15.152Z,92.03
2019-03-15T12:08:23.762Z,92.12
2019-03-15T12:11:32.327Z,92.60
2019-03-15T12:14:51.089Z,92.12
2019-03-15T12:17:59.707Z,92.39
2019-03-15T12:21:08.269Z,92.98
2019-03-15T12:24:18.212Z,93.34
2019-03-15T12:27:26.876Z,93.19
2019-03-15T12:30:45.698Z,93.94
2019-03-15T12:33:54.268Z,94.55
2019-03-15T12:37:02.965Z,94.95
2019-03-15T12:40:12.141Z,94.90
2019-03-15T12:43:20.629Z,95.20
2019-03-15T12:46:28.014Z,95.42
2019-03-15T12:49:38.162Z,95.16
2019-03-15T12:52:48.337Z,95.31
2019-03-15T12:55:56.946Z,95.59
2019-03-15T12:59:07.267Z,95.53
2019-03-15T13:02:15.907Z,95.90
2019-03-15T13:05:34.765Z,95.87
2019-03-15T13:08:43.250Z,95.92
2019-03-15T13:11:51.834Z,95.92
2019-03-15T13:15:00.413Z,96.19
2019-03-15T13:18:09.126Z,96.11
2019-03-15T13:21:20.695Z,95.50
2019-03-15T13:24:28.142Z,95.50
2019-03-15T13:27:36.711Z,95.29
2019-03-15T13:30:55.819Z,95.06
2019-03-15T13:34:04.403Z,94.73
2019-03-15T13:37:12.982Z,94.03
2019-03-15T13:40:21.737Z,93.59
2019-03-15T13:43:30.326Z,92.34
2019-03-15T13:46:38.918Z,92.22
2019-03-15T13:49:47.605Z,91.69
2019-03-15T13:53:06.445Z,91.02
2019-03-15T13:56:15.055Z,90.12
2019-03-15T13:59:23.663Z,89.01
2019-03-15T14:02:32.254Z,87.64
2019-03-15T14:05:40.896Z,84.77
2019-03-15T14:08:49.614Z,83.12
2019-03-15T14:11:58.194Z,82.34
2019-03-15T14:15:17.100Z,81.08
2019-03-15T14:18:25.776Z,78.73
2019-03-15T14:21:34.404Z,77.40
2019-03-15T14:24:43.090Z,77.08
2019-03-15T14:27:51.668Z,74.83
2019-03-15T14:31:00.265Z,74.86
2019-03-15T14:34:08.875Z,74.04
2019-03-15T14:37:17.701Z,72.58
2019-03-15T14:40:26.331Z,70.32
2019-03-15T14:43:45.198Z,70.21
2019-03-15T14:46:53.975Z,69.70
2019-03-15T14:50:02.562Z,68.30
2019-03-15T14:53:11.090Z,66.97
2019-03-15T14:56:21.658Z,66.16
2019-03-15T14:59:30.171Z,65.20
2019-03-15T15:02:38.679Z,65.12
2019-03-15T15:05:47.562Z,65.27
2019-03-15T15:08:56.223Z,65.52
2019-03-15T15:12:04.838Z,65.33
2019-03-15T15:15:23.801Z,64.99
2019-03-15T15:18:32.401Z,65.49
2019-03-15T15:21:40.995Z,64.07
2019-03-15T15:24:49.508Z,63.70
2019-03-15T15:28:04.480Z,63.35
2019-03-15T15:31:08.595Z,63.75
2019-03-15T15:34:17.106Z,63.82
2019-03-15T15:37:35.890Z,63.62
2019-03-15T15:40:44.515Z,63.58
2019-03-15T15:43:52.991Z,64.08
2019-03-15T15:47:01.642Z,62.57
2019-03-15T15:50:10.591Z,62.61
2019-03-15T15:53:19.236Z,62.74
2019-03-15T15:56:27.836Z,62.49
2019-03-15T15:59:36.492Z,61.90
2019-03-15T16:02:55.281Z,62.53
2019-03-15T16:06:03.905Z,62.67
2019-03-15T16:09:12.638Z,62.65
2019-03-15T16:12:21.252Z,63.02
2019-03-15T16:15:29.842Z,63.47
2019-03-15T16:18:38.534Z,63.35
2019-03-15T16:21:47.089Z,63.48
2019-03-15T16:24:55.651Z,63.22
2019-03-15T16:28:14.597Z,63.77
2019-03-15T16:31:23.196Z,64.21
2019-03-15T16:34:31.798Z,63.95
2019-03-15T16:37:40.408Z,63.71
2019-03-15T16:40:48.910Z,63.36
2019-03-15T16:43:57.483Z,63.81
2019-03-15T16:47:16.377Z,64.56
2019-03-15T16:50:24.977Z,64.72
2019-03-15T16:53:33.642Z,64.04
2019-03-15T16:56:42.245Z,63.95
2019-03-15T16:59:50.811Z,63.98
2019-03-15T17:02:59.296Z,63.97
2019-03-15T17:06:18.221Z,64.39
2019-03-15T17:09:26.790Z,64.51
2019-03-15T17:12:35.401Z,64.61
2019-03-15T17:15:44.057Z,64.30
2019-03-15T17:18:52.531Z,64.48
2019-03-15T17:22:01.119Z,64.46
2019-03-15T17:25:20.100Z,65.03
2019-03-15T17:28:28.722Z,65.75
2019-03-15T17:31:37.390Z,65.74
2019-03-15T17:34:45.989Z,65.54
2019-03-15T17:37:54.714Z,65.28
2019-03-15T17:41:03.492Z,65.79
2019-03-15T17:44:12.077Z,65.95
2019-03-15T17:47:20.680Z,66.02
2019-03-15T17:50:29.250Z,66.10
2019-03-15T17:53:48.124Z,66.52
2019-03-15T17:56:56.716Z,65.99
2019-03-15T18:00:16.532Z,66.37
2019-03-15T18:03:25.425Z,65.79
2019-03-15T18:06:34.023Z,65.18
2019-03-15T18:09:42.642Z,65.03
2019-03-15T18:12:51.255Z,64.26
2019-03-15T18:15:59.822Z,64.57
2019-03-15T18:19:18.666Z,65.20
2019-03-15T18:22:27.261Z,65.00
2019-03-15T18:25:35.833Z,64.74
2019-03-15T18:28:44.431Z,65.02
2019-03-15T18:31:53.023Z,65.54
2019-03-15T18:35:01.667Z,65.66
2019-03-15T18:38:20.421Z,66.25
2019-03-15T18:41:28.987Z,66.51
2019-03-15T18:44:37.589Z,66.63
2019-03-15T18:47:46.190Z,66.43
2019-03-15T18:50:54.814Z,66.53
2019-03-15T18:54:16.764Z,66.78
2019-03-15T18:57:13.737Z,66.58
2019-03-15T19:00:32.779Z,65.68
2019-03-15T19:03:41.470Z,65.26
2019-03-15T19:06:49.943Z,65.22
2019-03-15T19:09:58.571Z,64.53
2019-03-15T19:13:07.159Z,64.41
2019-03-15T19:16:20.273Z,64.70
2019-03-15T19:19:26.132Z,66.14
2019-03-15T19:22:34.761Z,65.42
2019-03-15T19:25:54.669Z,65.86
2019-03-15T19:29:03.268Z,65.78
2019-03-15T19:32:11.838Z,66.07
2019-03-15T19:35:20.428Z,65.86
2019-03-15T19:38:39.293Z,66.17
2019-03-15T19:41:47.876Z,65.44
2019-03-15T19:44:56.470Z,65.43
2019-03-15T19:48:05.151Z,64.87
2019-03-15T19:51:13.730Z,64.98
2019-03-15T19:54:22.254Z,66.02
2019-03-15T19:57:41.122Z,66.82
2019-03-15T20:00:49.616Z,66.75
2019-03-15T20:03:58.215Z,67.17
2019-03-15T20:07:06.828Z,67.46
2019-03-15T20:10:16.793Z,67.05
2019-03-15T20:13:25.657Z,67.65
2019-03-15T20:16:44.423Z,67.57
2019-03-15T20:19:53.032Z,67.93
2019-03-15T20:23:01.640Z,68.20
2019-03-15T20:26:10.319Z,68.51
2019-03-15T20:29:18.901Z,68.61
2019-03-15T20:32:27.522Z,68.17
2019-03-15T20:35:36.165Z,68.31
2019-03-15T20:38:44.844Z,68.39
2019-03-15T20:42:03.797Z,68.21
2019-03-15T20:45:14.327Z,68.00
2019-03-15T20:48:22.873Z,68.18
2019-03-15T20:51:31.445Z,68.49
2019-03-15T20:54:40.063Z,68.47
2019-03-15T20:57:48.670Z,68.68
2019-03-15T21:00:57.321Z,68.62
2019-03-15T21:04:06.064Z,68.71
2019-03-15T21:07:24.713Z,68.22
2019-03-15T21:10:33.396Z,68.21
2019-03-15T21:13:43.192Z,68.72
2019-03-15T21:16:51.966Z,68.90
2019-03-15T21:20:00.687Z,68.65
2019-03-15T21:23:10.939Z,68.94
2019-03-15T21:26:19.699Z,68.40
2019-03-15T21:33:06.101Z,67.91
2019-03-15T21:36:14.695Z,67.75
2019-03-15T21:39:23.263Z,68.23
2019-03-15T21:42:31.830Z,68.52
2019-03-15T21:45:51.277Z,68.30
2019-03-15T21:48:59.838Z,68.52
2019-03-15T21:52:18.870Z,68.38
2019-03-15T21:55:27.440Z,68.48
2019-03-15T21:58:36.074Z,68.78
2019-03-15T22:01:45.572Z,68.99
2019-03-15T22:04:54.030Z,69.28
2019-03-15T22:08:03.537Z,69.17
2019-03-15T22:11:21.230Z,69.33
2019-03-15T22:14:22.569Z,68.78
2019-03-15T22:17:41.496Z,68.75
2019-03-15T22:20:50.145Z,68.30
2019-03-15T22:23:58.763Z,68.60
2019-03-15T22:27:07.385Z,68.45
2019-03-15T22:30:16.276Z,68.11
2019-03-15T22:33:24.828Z,67.70
2019-03-15T22:36:33.524Z,68.04
2019-03-15T22:39:42.185Z,68.34
2019-03-15T22:42:50.671Z,68.39
2019-03-15T22:46:09.549Z,68.37
2019-03-15T22:49:19.940Z,69.13
2019-03-15T22:52:28.616Z,69.26
2019-03-15T22:55:37.167Z,69.64
2019-03-15T22:58:45.638Z,69.69
2019-03-15T23:01:54.135Z,70.59
2019-03-15T23:05:13.035Z,70.63
2019-03-15T23:08:21.685Z,71.05
2019-03-15T23:11:30.637Z,71.22
2019-03-15T23:14:39.217Z,71.13
2019-03-15T23:17:47.758Z,71.18
2019-03-15T23:20:56.323Z,70.64
2019-03-15T23:24:04.824Z,70.68
2019-03-15T23:27:13.410Z,70.18
2019-03-15T23:30:32.170Z,70.02
2019-03-15T23:33:40.757Z,70.06
2019-03-15T23:36:49.281Z,70.12
2019-03-15T23:39:57.933Z,69.67
2019-03-15T23:43:06.548Z,70.23
2019-03-15T23:46:15.179Z,70.06
2019-03-15T23:49:33.941Z,70.00
2019-03-15T23:52:42.520Z,69.32
2019-03-15T23:55:51.082Z,69.93
2019-03-15T23:58:59.635Z,70.29
